sensor_id;sensor_type;location;lat;lon;timestamp;pressure;altitude;pressure_sealevel;temperature;humidity
85157;BME280;75524;50.698;7.196;2024-02-14T00:00:43;100779.97;;;7.41;87.45
85157;BME280;75524;50.698;7.196;2024-02-14T00:03:10;100782.66;;;7.41;87.21
85157;BME280;75524;50.698;7.196;2024-02-14T00:05:36;100776.25;;;7.43;87.30
85157;BME280;75524;50.698;7.196;2024-02-14T00:08:03;100769.03;;;7.43;87.54
85157;BME280;75524;50.698;7.196;2024-02-14T00:10:29;100769.69;;;7.45;87.48
85157;BME280;75524;50.698;7.196;2024-02-14T00:12:56;100776.91;;;7.45;87.39
85157;BME280;75524;50.698;7.196;2024-02-14T00:15:22;100775.22;;;7.44;87.57
85157;BME280;75524;50.698;7.196;2024-02-14T00:17:50;100767.63;;;7.47;87.90
85157;BME280;75524;50.698;7.196;2024-02-14T00:20:16;100775.78;;;7.54;87.81
85157;BME280;75524;50.698;7.196;2024-02-14T00:22:43;100775.22;;;7.58;87.73
85157;BME280;75524;50.698;7.196;2024-02-14T00:25:09;100778.56;;;7.61;87.42
85157;BME280;75524;50.698;7.196;2024-02-14T00:27:36;100769.91;;;7.65;87.12
85157;BME280;75524;50.698;7.196;2024-02-14T00:30:03;100777.97;;;7.65;87.17
85157;BME280;75524;50.698;7.196;2024-02-14T00:32:30;100756.75;;;7.70;87.15
85157;BME280;75524;50.698;7.196;2024-02-14T00:34:57;100758.41;;;7.71;87.25
85157;BME280;75524;50.698;7.196;2024-02-14T00:37:24;100750.34;;;7.71;87.52
85157;BME280;75524;50.698;7.196;2024-02-14T00:39:50;100741.81;;;7.68;87.79
85157;BME280;75524;50.698;7.196;2024-02-14T00:42:18;100748.66;;;7.70;87.66
85157;BME280;75524;50.698;7.196;2024-02-14T00:44:44;100738.31;;;7.67;87.65
85157;BME280;75524;50.698;7.196;2024-02-14T00:47:10;100747.25;;;7.74;87.23
85157;BME280;75524;50.698;7.196;2024-02-14T00:49:37;100749.13;;;7.74;87.91
85157;BME280;75524;50.698;7.196;2024-02-14T00:52:05;100741.72;;;7.76;87.89
85157;BME280;75524;50.698;7.196;2024-02-14T00:54:32;100745.88;;;7.79;88.10
85157;BME280;75524;50.698;7.196;2024-02-14T00:56:59;100750.63;;;7.77;88.61
85157;BME280;75524;50.698;7.196;2024-02-14T00:59:25;100747.72;;;7.78;88.58
85157;BME280;75524;50.698;7.196;2024-02-14T01:01:52;100744.22;;;7.78;88.97
85157;BME280;75524;50.698;7.196;2024-02-14T01:04:18;100747.09;;;7.76;89.19
85157;BME280;75524;50.698;7.196;2024-02-14T01:06:45;100747.09;;;7.76;89.59
85157;BME280;75524;50.698;7.196;2024-02-14T01:09:11;100743.38;;;7.77;89.57
85157;BME280;75524;50.698;7.196;2024-02-14T01:11:38;100746.06;;;7.77;89.50
85157;BME280;75524;50.698;7.196;2024-02-14T01:14:04;100740.69;;;7.77;89.62
85157;BME280;75524;50.698;7.196;2024-02-14T01:16:31;100743.38;;;7.77;89.90
85157;BME280;75524;50.698;7.196;2024-02-14T01:18:57;100732.44;;;7.79;90.01
85157;BME280;75524;50.698;7.196;2024-02-14T01:21:24;100733.47;;;7.78;90.49
85157;BME280;75524;50.698;7.196;2024-02-14T01:23:50;100730.13;;;7.75;90.44
85157;BME280;75524;50.698;7.196;2024-02-14T01:26:18;100738.19;;;7.75;90.98
85157;BME280;75524;50.698;7.196;2024-02-14T01:28:44;100728.28;;;7.76;91.08
85157;BME280;75524;50.698;7.196;2024-02-14T01:31:11;100719.00;;;7.79;91.23
85157;BME280;75524;50.698;7.196;2024-02-14T01:33:38;100717.53;;;7.76;91.23
85157;BME280;75524;50.698;7.196;2024-02-14T01:36:05;100712.13;;;7.76;91.64
85157;BME280;75524;50.698;7.196;2024-02-14T01:38:31;100711.28;;;7.75;91.74
85157;BME280;75524;50.698;7.196;2024-02-14T01:41:02;100704.06;;;7.76;91.88
85157;BME280;75524;50.698;7.196;2024-02-14T01:43:29;100698.69;;;7.76;92.00
85157;BME280;75524;50.698;7.196;2024-02-14T01:46:05;100704.44;;;7.73;92.75
85157;BME280;75524;50.698;7.196;2024-02-14T01:48:33;100695.53;;;7.72;92.72
85157;BME280;75524;50.698;7.196;2024-02-14T01:51:00;100700.91;;;7.72;92.84
85157;BME280;75524;50.698;7.196;2024-02-14T01:53:28;100697.22;;;7.73;93.14
85157;BME280;75524;50.698;7.196;2024-02-14T01:55:58;100705.28;;;7.73;93.35
85157;BME280;75524;50.698;7.196;2024-02-14T01:58:25;100710.06;;;7.78;93.64
85157;BME280;75524;50.698;7.196;2024-02-14T02:00:51;100709.63;;;7.74;93.88
85157;BME280;75524;50.698;7.196;2024-02-14T02:03:24;100719.75;;;7.72;94.27
85157;BME280;75524;50.698;7.196;2024-02-14T02:05:51;100713.34;;;7.73;94.51
85157;BME280;75524;50.698;7.196;2024-02-14T02:08:18;100722.63;;;7.71;94.85
85157;BME280;75524;50.698;7.196;2024-02-14T02:10:45;100726.97;;;7.72;95.10
85157;BME280;75524;50.698;7.196;2024-02-14T02:13:11;100710.00;;;7.71;95.40
85157;BME280;75524;50.698;7.196;2024-02-14T02:15:38;100712.69;;;7.71;95.98
85157;BME280;75524;50.698;7.196;2024-02-14T02:18:05;100718.72;;;7.73;96.20
85157;BME280;75524;50.698;7.196;2024-02-14T02:20:32;100721.59;;;7.72;96.55
85157;BME280;75524;50.698;7.196;2024-02-14T02:22:59;100705.66;;;7.70;96.75
85157;BME280;75524;50.698;7.196;2024-02-14T02:25:25;100702.50;;;7.67;97.42
85157;BME280;75524;50.698;7.196;2024-02-14T02:27:53;100700.00;;;7.65;97.88
85157;BME280;75524;50.698;7.196;2024-02-14T02:30:24;100699.19;;;7.65;98.48
85157;BME280;75524;50.698;7.196;2024-02-14T02:32:51;100706.41;;;7.64;98.47
85157;BME280;75524;50.698;7.196;2024-02-14T02:35:17;100695.47;;;7.66;98.60
85157;BME280;75524;50.698;7.196;2024-02-14T02:37:47;100694.44;;;7.67;98.87
85157;BME280;75524;50.698;7.196;2024-02-14T02:40:17;100696.50;;;7.65;99.08
85157;BME280;75524;50.698;7.196;2024-02-14T02:42:43;100700.19;;;7.64;99.18
85157;BME280;75524;50.698;7.196;2024-02-14T02:45:11;100708.47;;;7.62;99.58
85157;BME280;75524;50.698;7.196;2024-02-14T02:47:38;100714.84;;;7.61;99.81
85157;BME280;75524;50.698;7.196;2024-02-14T02:50:05;100701.59;;;7.60;100.00
85157;BME280;75524;50.698;7.196;2024-02-14T02:52:32;100711.97;;;7.63;100.00
85157;BME280;75524;50.698;7.196;2024-02-14T02:54:58;100718.19;;;7.63;100.00
85157;BME280;75524;50.698;7.196;2024-02-14T02:57:25;100719.03;;;7.64;100.00
85157;BME280;75524;50.698;7.196;2024-02-14T02:59:53;100708.06;;;7.65;100.00
85157;BME280;75524;50.698;7.196;2024-02-14T03:02:20;100726.06;;;7.65;100.00
85157;BME280;75524;50.698;7.196;2024-02-14T03:04:47;100704.56;;;7.65;100.00
85157;BME280;75524;50.698;7.196;2024-02-14T03:07:19;100694.81;;;7.64;100.00
85157;BME280;75524;50.698;7.196;2024-02-14T03:09:46;100717.16;;;7.64;100.00
85157;BME280;75524;50.698;7.196;2024-02-14T03:12:13;100718.81;;;7.65;100.00
85157;BME280;75524;50.698;7.196;2024-02-14T03:14:42;100722.78;;;7.69;100.00
85157;BME280;75524;50.698;7.196;2024-02-14T03:17:10;100729.84;;;7.70;100.00
85157;BME280;75524;50.698;7.196;2024-02-14T03:19:37;100733.19;;;7.72;100.00
85157;BME280;75524;50.698;7.196;2024-02-14T03:22:05;100738.19;;;7.75;100.00
85157;BME280;75524;50.698;7.196;2024-02-14T03:24:35;100734.88;;;7.73;100.00
85157;BME280;75524;50.698;7.196;2024-02-14T03:27:03;100742.94;;;7.73;100.00
85157;BME280;75524;50.698;7.196;2024-02-14T03:29:33;100732.19;;;7.73;100.00
85157;BME280;75524;50.698;7.196;2024-02-14T03:32:02;100730.13;;;7.75;100.00
85157;BME280;75524;50.698;7.196;2024-02-14T03:34:31;100736.50;;;7.74;100.00
85157;BME280;75524;50.698;7.196;2024-02-14T03:37:00;100743.56;;;7.75;100.00
85157;BME280;75524;50.698;7.196;2024-02-14T03:39:29;100733.00;;;7.74;100.00
85157;BME280;75524;50.698;7.196;2024-02-14T03:41:56;100743.19;;;7.79;100.00
85157;BME280;75524;50.698;7.196;2024-02-14T03:44:22;100736.97;;;7.78;100.00
85157;BME280;75524;50.698;7.196;2024-02-14T03:46:49;100737.97;;;7.77;100.00
85157;BME280;75524;50.698;7.196;2024-02-14T03:49:16;100745.88;;;7.79;100.00
85157;BME280;75524;50.698;7.196;2024-02-14T03:51:43;100727.69;;;7.81;100.00
85157;BME280;75524;50.698;7.196;2024-02-14T03:54:09;100723.31;;;7.80;100.00
85157;BME280;75524;50.698;7.196;2024-02-14T03:56:37;100734.09;;;7.80;100.00
85157;BME280;75524;50.698;7.196;2024-02-14T03:59:04;100738.84;;;7.78;100.00
85157;BME280;75524;50.698;7.196;2024-02-14T04:01:32;100735.28;;;7.77;100.00
85157;BME280;75524;50.698;7.196;2024-02-14T04:03:58;100730.97;;;7.76;100.00
85157;BME280;75524;50.698;7.196;2024-02-14T04:06:25;100728.28;;;7.76;100.00
85157;BME280;75524;50.698;7.196;2024-02-14T04:08:53;100738.19;;;7.75;100.00
85157;BME280;75524;50.698;7.196;2024-02-14T04:11:20;100730.13;;;7.75;100.00
85157;BME280;75524;50.698;7.196;2024-02-14T04:13:46;100736.59;;;7.81;100.00
85157;BME280;75524;50.698;7.196;2024-02-14T04:16:12;100735.75;;;7.81;100.00
85157;BME280;75524;50.698;7.196;2024-02-14T04:18:39;100735.56;;;7.82;100.00
85157;BME280;75524;50.698;7.196;2024-02-14T04:21:07;100734.75;;;7.82;100.00
85157;BME280;75524;50.698;7.196;2024-02-14T04:23:34;100737.22;;;7.83;100.00
85157;BME280;75524;50.698;7.196;2024-02-14T04:26:00;100731.03;;;7.83;100.00
85157;BME280;75524;50.698;7.196;2024-02-14T04:28:27;100728.53;;;7.81;100.00
85157;BME280;75524;50.698;7.196;2024-02-14T04:30:53;100737.63;;;7.80;100.00
85157;BME280;75524;50.698;7.196;2024-02-14T04:33:21;100739.31;;;7.81;100.00
85157;BME280;75524;50.698;7.196;2024-02-14T04:35:48;100744.47;;;7.83;100.00
85157;BME280;75524;50.698;7.196;2024-02-14T04:38:15;100745.97;;;7.85;100.00
85157;BME280;75524;50.698;7.196;2024-02-14T04:43:15;100751.16;;;7.87;100.00
85157;BME280;75524;50.698;7.196;2024-02-14T04:45:42;100736.22;;;7.84;100.00
85157;BME280;75524;50.698;7.196;2024-02-14T04:48:09;100742.41;;;7.85;100.00
85157;BME280;75524;50.698;7.196;2024-02-14T04:50:36;100733.13;;;7.87;100.00
85157;BME280;75524;50.698;7.196;2024-02-14T04:53:03;100730.44;;;7.87;100.00
85157;BME280;75524;50.698;7.196;2024-02-14T04:55:30;100743.06;;;7.87;100.00
85157;BME280;75524;50.698;7.196;2024-02-14T04:57:56;100741.41;;;7.86;100.00
85157;BME280;75524;50.698;7.196;2024-02-14T05:00:23;100734.59;;;7.90;100.00
85157;BME280;75524;50.698;7.196;2024-02-14T05:02:49;100731.75;;;7.91;100.00
85157;BME280;75524;50.698;7.196;2024-02-14T05:05:16;100736.09;;;7.93;100.00
85157;BME280;75524;50.698;7.196;2024-02-14T05:07:42;100733.59;;;7.91;100.00
85157;BME280;75524;50.698;7.196;2024-02-14T05:10:09;100730.09;;;7.90;100.00
85157;BME280;75524;50.698;7.196;2024-02-14T05:12:36;100737.31;;;7.90;100.00
85157;BME280;75524;50.698;7.196;2024-02-14T05:15:03;100731.75;;;7.91;100.00
85157;BME280;75524;50.698;7.196;2024-02-14T05:17:30;100740.44;;;7.94;100.00
85157;BME280;75524;50.698;7.196;2024-02-14T05:19:57;100738.41;;;7.96;100.00
85157;BME280;75524;50.698;7.196;2024-02-14T05:22:23;100729.88;;;7.92;100.00
85157;BME280;75524;50.698;7.196;2024-02-14T05:24:50;100741.47;;;7.93;100.00
85157;BME280;75524;50.698;7.196;2024-02-14T05:27:16;100737.75;;;7.94;100.00
85157;BME280;75524;50.698;7.196;2024-02-14T05:29:42;100742.94;;;7.95;100.00
85157;BME280;75524;50.698;7.196;2024-02-14T05:32:09;100745.47;;;7.97;100.00
85157;BME280;75524;50.698;7.196;2024-02-14T05:34:35;100741.94;;;7.96;100.00
85157;BME280;75524;50.698;7.196;2024-02-14T05:37:02;100729.50;;;7.95;100.00
85157;BME280;75524;50.698;7.196;2024-02-14T05:39:28;100733.84;;;7.96;100.00
85157;BME280;75524;50.698;7.196;2024-02-14T05:41:55;100737.41;;;7.97;100.00
85157;BME280;75524;50.698;7.196;2024-02-14T05:44:21;100746.09;;;7.99;100.00
85157;BME280;75524;50.698;7.196;2024-02-14T05:46:49;100755.00;;;7.99;100.00
85157;BME280;75524;50.698;7.196;2024-02-14T05:49:15;100762.03;;;8.00;100.00
85157;BME280;75524;50.698;7.196;2024-02-14T05:51:42;100758.53;;;8.00;100.00
85157;BME280;75524;50.698;7.196;2024-02-14T05:54:08;100760.81;;;8.03;100.00
85157;BME280;75524;50.698;7.196;2024-02-14T05:56:34;100756.28;;;8.03;100.00
85157;BME280;75524;50.698;7.196;2024-02-14T05:59:01;100769.09;;;8.01;100.00
85157;BME280;75524;50.698;7.196;2024-02-14T06:01:28;100761.88;;;8.02;100.00
85157;BME280;75524;50.698;7.196;2024-02-14T06:03:55;100779.28;;;8.06;100.00
85157;BME280;75524;50.698;7.196;2024-02-14T06:06:21;100771.41;;;8.04;100.00
85157;BME280;75524;50.698;7.196;2024-02-14T06:08:49;100780.78;;;8.08;100.00
85157;BME280;75524;50.698;7.196;2024-02-14T06:11:16;100784.47;;;8.07;100.00
85157;BME280;75524;50.698;7.196;2024-02-14T06:13:42;100763.16;;;8.06;100.00
85157;BME280;75524;50.698;7.196;2024-02-14T06:16:10;100777.06;;;8.10;100.00
85157;BME280;75524;50.698;7.196;2024-02-14T06:18:37;100771.84;;;8.08;100.00
85157;BME280;75524;50.698;7.196;2024-02-14T06:21:06;100773.06;;;8.05;100.00
85157;BME280;75524;50.698;7.196;2024-02-14T06:23:33;100773.53;;;8.09;100.00
85157;BME280;75524;50.698;7.196;2024-02-14T06:26:00;100765.84;;;8.06;100.00
85157;BME280;75524;50.698;7.196;2024-02-14T06:28:26;100779.28;;;8.06;100.00
85157;BME280;75524;50.698;7.196;2024-02-14T06:30:54;100782.19;;;8.04;100.00
85157;BME280;75524;50.698;7.196;2024-02-14T06:33:20;100777.81;;;8.03;100.00
85157;BME280;75524;50.698;7.196;2024-02-14T06:35:48;100778.63;;;8.04;100.00
85157;BME280;75524;50.698;7.196;2024-02-14T06:38:14;100781.34;;;8.04;100.00
85157;BME280;75524;50.698;7.196;2024-02-14T06:40:41;100775.94;;;8.04;100.00
85157;BME280;75524;50.698;7.196;2024-02-14T06:43:10;100784.88;;;8.04;100.00
85157;BME280;75524;50.698;7.196;2024-02-14T06:45:36;100795.25;;;8.07;100.00
85157;BME280;75524;50.698;7.196;2024-02-14T06:48:03;100796.25;;;8.06;100.00
85157;BME280;75524;50.698;7.196;2024-02-14T06:50:30;100798.59;;;8.10;100.00
85157;BME280;75524;50.698;7.196;2024-02-14T06:52:57;100802.75;;;8.12;100.00
85157;BME280;75524;50.698;7.196;2024-02-14T06:55:26;100807.09;;;8.13;100.00
85157;BME280;75524;50.698;7.196;2024-02-14T06:57:53;100807.75;;;8.15;100.00
85157;BME280;75524;50.698;7.196;2024-02-14T07:00:20;100811.25;;;8.16;100.00
85157;BME280;75524;50.698;7.196;2024-02-14T07:02:47;100813.78;;;8.17;100.00
85157;BME280;75524;50.698;7.196;2024-02-14T07:05:14;100812.56;;;8.20;100.00
85157;BME280;75524;50.698;7.196;2024-02-14T07:07:41;100807.81;;;8.22;100.00
85157;BME280;75524;50.698;7.196;2024-02-14T07:10:08;100813.19;;;8.22;100.00
85157;BME280;75524;50.698;7.196;2024-02-14T07:12:34;100812.63;;;8.27;100.00
85157;BME280;75524;50.698;7.196;2024-02-14T07:15:03;100818.84;;;8.27;100.00
85157;BME280;75524;50.698;7.196;2024-02-14T07:17:31;100812.44;;;8.28;100.00
85157;BME280;75524;50.698;7.196;2024-02-14T07:19:57;100814.56;;;8.33;100.00
85157;BME280;75524;50.698;7.196;2024-02-14T07:22:23;100811.28;;;8.37;100.00
85157;BME280;75524;50.698;7.196;2024-02-14T07:24:50;100812.13;;;8.38;100.00
85157;BME280;75524;50.698;7.196;2024-02-14T07:27:16;100813.16;;;8.37;100.00
85157;BME280;75524;50.698;7.196;2024-02-14T07:29:43;100819.38;;;8.37;100.00
85157;BME280;75524;50.698;7.196;2024-02-14T07:32:10;100811.94;;;8.39;100.00
85157;BME280;75524;50.698;7.196;2024-02-14T07:34:39;100811.75;;;8.41;100.00
85157;BME280;75524;50.698;7.196;2024-02-14T07:37:09;100804.47;;;8.41;100.00
85157;BME280;75524;50.698;7.196;2024-02-14T07:39:36;100813.22;;;8.44;100.00
85157;BME280;75524;50.698;7.196;2024-02-14T07:42:03;100815.72;;;8.45;100.00
85157;BME280;75524;50.698;7.196;2024-02-14T07:44:30;100817.41;;;8.46;100.00
85157;BME280;75524;50.698;7.196;2024-02-14T07:46:57;100822.41;;;8.49;100.00
85157;BME280;75524;50.698;7.196;2024-02-14T07:49:27;100819.53;;;8.51;100.00
85157;BME280;75524;50.698;7.196;2024-02-14T07:51:54;100831.00;;;8.60;100.00
85157;BME280;75524;50.698;7.196;2024-02-14T07:54:20;100826.06;;;8.63;100.00
85157;BME280;75524;50.698;7.196;2024-02-14T07:56:46;100829.41;;;8.65;100.00
85157;BME280;75524;50.698;7.196;2024-02-14T07:59:13;100831.50;;;8.70;100.00
85157;BME280;75524;50.698;7.196;2024-02-14T08:01:39;100831.75;;;8.75;100.00
85157;BME280;75524;50.698;7.196;2024-02-14T08:04:06;100839.66;;;8.77;100.00
85157;BME280;75524;50.698;7.196;2024-02-14T08:06:32;100839.72;;;8.83;100.00
85157;BME280;75524;50.698;7.196;2024-02-14T08:09:00;100844.31;;;8.89;100.00
85157;BME280;75524;50.698;7.196;2024-02-14T08:11:29;100844.44;;;9.03;100.00
85157;BME280;75524;50.698;7.196;2024-02-14T08:13:56;100852.13;;;9.06;100.00
85157;BME280;75524;50.698;7.196;2024-02-14T08:16:22;100849.22;;;9.07;100.00
85157;BME280;75524;50.698;7.196;2024-02-14T08:18:49;100865.03;;;9.11;100.00
85157;BME280;75524;50.698;7.196;2024-02-14T08:21:17;100854.81;;;9.06;100.00
85157;BME280;75524;50.698;7.196;2024-02-14T08:23:43;100853.13;;;9.05;100.00
85157;BME280;75524;50.698;7.196;2024-02-14T08:26:10;100847.59;;;9.06;100.00
85157;BME280;75524;50.698;7.196;2024-02-14T08:28:37;100858.16;;;9.08;100.00
85157;BME280;75524;50.698;7.196;2024-02-14T08:31:09;100862.69;;;9.07;100.00
85157;BME280;75524;50.698;7.196;2024-02-14T08:33:36;100860.84;;;9.08;100.00
85157;BME280;75524;50.698;7.196;2024-02-14T08:36:04;100862.78;;;9.14;100.00
85157;BME280;75524;50.698;7.196;2024-02-14T08:38:30;100855.91;;;9.12;100.00
85157;BME280;75524;50.698;7.196;2024-02-14T08:40:58;100864.03;;;9.18;100.00
85157;BME280;75524;50.698;7.196;2024-02-14T08:43:24;100870.53;;;9.31;100.00
85157;BME280;75524;50.698;7.196;2024-02-14T08:45:51;100857.50;;;9.34;100.00
85157;BME280;75524;50.698;7.196;2024-02-14T08:48:18;100861.53;;;9.45;100.00
85157;BME280;75524;50.698;7.196;2024-02-14T08:50:45;100864.03;;;9.47;99.75
85157;BME280;75524;50.698;7.196;2024-02-14T08:53:12;100858.03;;;9.51;99.59
85157;BME280;75524;50.698;7.196;2024-02-14T08:55:40;100869.91;;;9.57;99.35
85157;BME280;75524;50.698;7.196;2024-02-14T08:58:06;100872.41;;;9.59;98.78
85157;BME280;75524;50.698;7.196;2024-02-14T09:00:36;100874.50;;;9.63;99.29
85157;BME280;75524;50.698;7.196;2024-02-14T09:03:03;100869.16;;;9.70;98.83
85157;BME280;75524;50.698;7.196;2024-02-14T09:05:30;100872.06;;;9.68;98.62
85157;BME280;75524;50.698;7.196;2024-02-14T09:07:58;100861.69;;;9.72;98.74
85157;BME280;75524;50.698;7.196;2024-02-14T09:10:26;100874.78;;;9.75;98.54
85157;BME280;75524;50.698;7.196;2024-02-14T09:12:52;100873.13;;;9.81;98.31
85157;BME280;75524;50.698;7.196;2024-02-14T09:15:19;100870.25;;;9.82;97.82
85157;BME280;75524;50.698;7.196;2024-02-14T09:17:46;100867.78;;;9.87;98.02
85157;BME280;75524;50.698;7.196;2024-02-14T09:20:13;100866.38;;;9.92;97.95
85157;BME280;75524;50.698;7.196;2024-02-14T09:22:40;100863.91;;;9.97;97.50
85157;BME280;75524;50.698;7.196;2024-02-14T09:25:09;100859.31;;;9.97;96.80
85157;BME280;75524;50.698;7.196;2024-02-14T09:27:36;100865.19;;;10.08;97.08
85157;BME280;75524;50.698;7.196;2024-02-14T09:30:04;100868.31;;;10.18;96.88
85157;BME280;75524;50.698;7.196;2024-02-14T09:32:30;100863.38;;;10.21;96.25
85157;BME280;75524;50.698;7.196;2024-02-14T09:34:58;100866.06;;;10.28;95.14
85157;BME280;75524;50.698;7.196;2024-02-14T09:37:27;100866.75;;;10.37;95.51
85157;BME280;75524;50.698;7.196;2024-02-14T09:39:54;100867.59;;;10.44;95.34
85157;BME280;75524;50.698;7.196;2024-02-14T09:42:28;100864.94;;;10.58;93.77
85157;BME280;75524;50.698;7.196;2024-02-14T09:44:59;100868.47;;;10.71;93.62
85157;BME280;75524;50.698;7.196;2024-02-14T09:47:30;100871.59;;;10.75;92.55
85157;BME280;75524;50.698;7.196;2024-02-14T09:50:01;100875.34;;;10.74;92.80
85157;BME280;75524;50.698;7.196;2024-02-14T09:52:29;100864.75;;;10.79;92.97
85157;BME280;75524;50.698;7.196;2024-02-14T09:54:57;100871.00;;;10.86;92.10
85157;BME280;75524;50.698;7.196;2024-02-14T09:57:24;100866.84;;;10.97;92.08
85157;BME280;75524;50.698;7.196;2024-02-14T09:59:54;100876.59;;;11.05;91.06
85157;BME280;75524;50.698;7.196;2024-02-14T10:02:20;100878.91;;;11.08;90.69
85157;BME280;75524;50.698;7.196;2024-02-14T10:04:47;100881.41;;;11.10;91.35
85157;BME280;75524;50.698;7.196;2024-02-14T10:07:13;100889.72;;;11.22;90.49
85157;BME280;75524;50.698;7.196;2024-02-14T10:09:41;100891.59;;;11.28;90.23
85157;BME280;75524;50.698;7.196;2024-02-14T10:12:09;100895.13;;;11.28;88.67
85157;BME280;75524;50.698;7.196;2024-02-14T10:14:36;100899.91;;;11.26;88.62
85157;BME280;75524;50.698;7.196;2024-02-14T10:17:05;100900.94;;;11.32;89.75
85157;BME280;75524;50.698;7.196;2024-02-14T10:19:32;100893.03;;;11.30;89.29
85157;BME280;75524;50.698;7.196;2024-02-14T10:22:00;100899.91;;;11.40;88.99
85157;BME280;75524;50.698;7.196;2024-02-14T10:24:28;100904.50;;;11.39;89.43
85157;BME280;75524;50.698;7.196;2024-02-14T10:26:55;100915.09;;;11.47;89.11
85157;BME280;75524;50.698;7.196;2024-02-14T10:29:24;100902.78;;;11.51;88.69
85157;BME280;75524;50.698;7.196;2024-02-14T10:31:51;100904.47;;;11.52;88.11
85157;BME280;75524;50.698;7.196;2024-02-14T10:34:18;100907.19;;;11.46;88.28
85157;BME280;75524;50.698;7.196;2024-02-14T10:36:47;100891.78;;;11.53;88.63
85157;BME280;75524;50.698;7.196;2024-02-14T10:39:15;100906.13;;;11.53;87.46
85157;BME280;75524;50.698;7.196;2024-02-14T10:41:42;100903.22;;;11.55;88.05
85157;BME280;75524;50.698;7.196;2024-02-14T10:44:09;100911.53;;;11.60;87.31
85157;BME280;75524;50.698;7.196;2024-02-14T10:46:39;100910.28;;;11.56;87.33
85157;BME280;75524;50.698;7.196;2024-02-14T10:49:07;100911.53;;;11.53;87.53
85157;BME280;75524;50.698;7.196;2024-02-14T10:51:38;100905.72;;;11.50;87.55
85157;BME280;75524;50.698;7.196;2024-02-14T10:54:10;100904.03;;;11.49;87.82
85157;BME280;75524;50.698;7.196;2024-02-14T10:56:49;100907.63;;;11.43;87.66
85157;BME280;75524;50.698;7.196;2024-02-14T10:59:17;100901.56;;;11.41;87.94
85157;BME280;75524;50.698;7.196;2024-02-14T11:01:46;100900.75;;;11.40;88.72
85157;BME280;75524;50.698;7.196;2024-02-14T11:04:13;100908.41;;;11.50;88.41
85157;BME280;75524;50.698;7.196;2024-02-14T11:06:45;100904.06;;;11.42;87.76
85157;BME280;75524;50.698;7.196;2024-02-14T11:09:13;100897.41;;;11.38;88.67
85157;BME280;75524;50.698;7.196;2024-02-14T11:11:44;100906.34;;;11.39;88.40
85157;BME280;75524;50.698;7.196;2024-02-14T11:14:15;100900.72;;;11.33;88.96
85157;BME280;75524;50.698;7.196;2024-02-14T11:16:45;100896.59;;;11.38;89.15
85157;BME280;75524;50.698;7.196;2024-02-14T11:19:13;100892.81;;;11.39;89.16
85157;BME280;75524;50.698;7.196;2024-02-14T11:21:43;100889.69;;;11.48;89.45
85157;BME280;75524;50.698;7.196;2024-02-14T11:24:11;100894.06;;;11.49;88.83
85157;BME280;75524;50.698;7.196;2024-02-14T11:26:51;100889.69;;;11.55;89.07
85157;BME280;75524;50.698;7.196;2024-02-14T11:29:19;100893.44;;;11.61;89.03
85157;BME280;75524;50.698;7.196;2024-02-14T11:31:57;100889.47;;;11.57;88.81
85157;BME280;75524;50.698;7.196;2024-02-14T11:34:25;100898.00;;;11.53;88.68
85157;BME280;75524;50.698;7.196;2024-02-14T11:36:51;100896.34;;;11.52;89.24
85157;BME280;75524;50.698;7.196;2024-02-14T11:39:17;100895.09;;;11.55;89.39
85157;BME280;75524;50.698;7.196;2024-02-14T11:41:44;100888.03;;;11.61;89.09
85157;BME280;75524;50.698;7.196;2024-02-14T11:44:11;100890.50;;;11.62;88.37
85157;BME280;75524;50.698;7.196;2024-02-14T11:46:38;100893.00;;;11.64;88.30
85157;BME280;75524;50.698;7.196;2024-02-14T11:49:05;100896.13;;;11.61;88.92
85157;BME280;75524;50.698;7.196;2024-02-14T11:51:33;100887.19;;;11.60;88.40
85157;BME280;75524;50.698;7.196;2024-02-14T11:54:01;100887.81;;;11.62;88.88
85157;BME280;75524;50.698;7.196;2024-02-14T11:56:34;100894.22;;;11.68;88.58
85157;BME280;75524;50.698;7.196;2024-02-14T11:59:03;100896.13;;;11.67;88.45
85157;BME280;75524;50.698;7.196;2024-02-14T12:01:31;100897.78;;;11.75;88.14
85157;BME280;75524;50.698;7.196;2024-02-14T12:04:00;100884.44;;;11.80;88.12
85157;BME280;75524;50.698;7.196;2024-02-14T12:06:31;100886.28;;;11.86;88.20
85157;BME280;75524;50.698;7.196;2024-02-14T12:09:05;100888.78;;;11.88;87.18
85157;BME280;75524;50.698;7.196;2024-02-14T12:11:32;100888.56;;;11.96;87.81
85157;BME280;75524;50.698;7.196;2024-02-14T12:14:05;100887.09;;;11.94;86.83
85157;BME280;75524;50.698;7.196;2024-02-14T12:16:34;100880.44;;;11.96;86.79
85157;BME280;75524;50.698;7.196;2024-02-14T12:19:15;100875.84;;;11.90;87.34
85157;BME280;75524;50.698;7.196;2024-02-14T12:21:43;100876.25;;;11.94;87.59
85157;BME280;75524;50.698;7.196;2024-02-14T12:24:11;100882.72;;;11.93;87.45
85157;BME280;75524;50.698;7.196;2024-02-14T12:26:38;100877.97;;;11.88;87.56
85157;BME280;75524;50.698;7.196;2024-02-14T12:29:06;100875.66;;;11.85;87.84
85157;BME280;75524;50.698;7.196;2024-02-14T12:31:36;100875.25;;;11.88;87.72
85157;BME280;75524;50.698;7.196;2024-02-14T12:34:03;100877.50;;;11.98;88.21
85157;BME280;75524;50.698;7.196;2024-02-14T12:36:34;100896.06;;;11.94;87.26
85157;BME280;75524;50.698;7.196;2024-02-14T12:39:01;100884.63;;;11.85;87.68
85157;BME280;75524;50.698;7.196;2024-02-14T12:41:31;100889.59;;;11.95;88.22
85157;BME280;75524;50.698;7.196;2024-02-14T12:43:58;100880.63;;;11.95;88.38
85157;BME280;75524;50.698;7.196;2024-02-14T12:46:25;100881.66;;;11.94;88.46
85157;BME280;75524;50.698;7.196;2024-02-14T12:48:51;100880.00;;;11.93;88.42
85157;BME280;75524;50.698;7.196;2024-02-14T12:51:18;100893.75;;;11.91;88.87
85157;BME280;75524;50.698;7.196;2024-02-14T12:53:45;100884.84;;;11.84;89.16
85157;BME280;75524;50.698;7.196;2024-02-14T12:56:11;100895.84;;;11.82;89.14